logo
Search for airport 
image banner adimage banner adimage banner ad
image banner ad

HKDD - Didima Bule

Located in , Kenya

ICAO - , IATA -

Data provided by Airmate  

General information

Coordinates: S2°22'9" E39°37'3"
Elevation is 534 feet MSL.
 
View others Airports in Coast Province

Operational data

Special qualification required
Current time UTC:
Current local time:
Weather at : - ( 0 km )
METAR: PAHX 180802Z AUTO 08005KT 10SM -RA OVC065 02/01 A2992 RMK AO2 UPB0723E0727 SLP132 P0000 T00170011 400170017 FZRANO
View NOTAMs / SUP AIP / TFR affecting this airport [VIEW]
Communications frequencies: [VIEW]

Runways:

RWY identifierQFULength (ft)Width (ft)SurfaceLDA (ft)
1800UNK
3600UNK

Airport contact information

Address: Kenya

Satellite view of HKDD